Time;durP1;ratioP1;P1;durP2;ratioP2;P2;SDS_P1;SDS_P2;PMS_P1;PMS_P2;Temp;Humidity;BMP_temperature;BMP_pressure;BME280_temperature;BME280_humidity;BME280_pressure;Samples;Min_cycle;Max_cycle;Signal;HPM_P1;HPM_P2
2022/06/21 00:00:11;;;;;;;3.30;1.77;;;;;;;;;;4847305;29;20050;-77
2022/06/21 00:02:39;;;;;;;1.60;1.47;;;;;;;;;;4849583;29;20714;-77
2022/06/21 00:05:12;;;;;;;1.73;1.50;;;;;;;;;;4851414;29;20067;-78
2022/06/21 00:07:39;;;;;;;2.05;1.63;;;;;;;;;;4846961;29;20056;-76
2022/06/21 00:10:10;;;;;;;2.63;1.50;;;;;;;;;;4845587;29;20069;-78
2022/06/21 00:12:38;;;;;;;1.50;1.50;;;;;;;;;;4834986;29;20061;-77
2022/06/21 00:15:05;;;;;;;1.70;1.60;;;;;;;;;;4835668;29;20072;-78
2022/06/21 00:17:32;;;;;;;1.50;1.40;;;;;;;;;;4842848;29;20107;-78
2022/06/21 00:20:00;;;;;;;1.98;1.40;;;;;;;;;;4841260;29;20788;-77
2022/06/21 00:22:27;;;;;;;1.73;1.42;;;;;;;;;;4837667;29;20041;-80
2022/06/21 00:24:55;;;;;;;2.00;1.50;;;;;;;;;;4859670;29;20128;-79
2022/06/21 00:27:23;;;;;;;1.52;1.42;;;;;;;;;;4852590;29;20045;-77
2022/06/21 00:29:50;;;;;;;1.50;1.40;;;;;;;;;;4837271;29;20042;-78
2022/06/21 00:32:19;;;;;;;1.40;1.30;;;;;;;;;;4847833;29;20056;-79
2022/06/21 00:34:47;;;;;;;2.83;1.48;;;;;;;;;;4825030;29;20072;-77
2022/06/21 00:37:19;;;;;;;1.50;1.40;;;;;;;;;;4840393;29;20051;-76
2022/06/21 00:39:47;;;;;;;1.65;1.27;;;;;;;;;;4833635;29;20069;-80
2022/06/21 00:42:26;;;;;;;1.40;1.30;;;;;;;;;;4843944;29;20839;-77
2022/06/21 00:44:59;;;;;;;1.40;1.30;;;;;;;;;;4826246;29;20102;-79
2022/06/21 00:47:36;;;;;;;1.33;1.23;;;;;;;;;;4829741;29;20141;-79
2022/06/21 00:50:10;;;;;;;1.40;1.15;;;;;;;;;;4836350;29;21484;-79
2022/06/21 00:52:43;;;;;;;2.28;1.35;;;;;;;;;;4850516;29;20077;-77
2022/06/21 00:55:31;;;;;;;1.20;1.10;;;;;;;;;;4837952;29;20049;-80
2022/06/21 00:57:58;;;;;;;1.83;1.10;;;;;;;;;;4814903;29;20544;-77
2022/06/21 01:00:28;;;;;;;1.38;1.27;;;;;;;;;;4846405;29;20053;-78
2022/06/21 01:03:00;;;;;;;1.58;1.13;;;;;;;;;;4851151;29;20046;-80
2022/06/21 01:05:33;;;;;;;1.23;1.10;;;;;;;;;;4836752;29;20049;-81
2022/06/21 01:08:00;;;;;;;1.35;1.20;;;;;;;;;;4839357;29;20472;-77
2022/06/21 01:10:28;;;;;;;1.50;1.30;;;;;;;;;;4832245;29;20422;-77
2022/06/21 01:13:02;;;;;;;1.10;1.00;;;;;;;;;;4832312;29;20609;-82
2022/06/21 01:15:41;;;;;;;0.90;0.90;;;;;;;;;;4804843;29;20064;-79
2022/06/21 01:18:09;;;;;;;1.05;0.98;;;;;;;;;;4827950;29;20045;-81
2022/06/21 01:20:39;;;;;;;1.08;1.08;;;;;;;;;;4849554;29;20132;-77
2022/06/21 01:23:15;;;;;;;1.52;1.02;;;;;;;;;;4841639;29;20101;-78
2022/06/21 01:26:02;;;;;;;2.60;1.08;;;;;;;;;;4842819;29;20133;-77
2022/06/21 01:28:29;;;;;;;1.10;1.00;;;;;;;;;;4850433;29;20034;-80
2022/06/21 01:30:57;;;;;;;1.00;1.00;;;;;;;;;;4834214;29;20137;-80
2022/06/21 01:33:28;;;;;;;1.58;1.00;;;;;;;;;;4833937;29;20417;-79
2022/06/21 01:35:56;;;;;;;1.13;1.00;;;;;;;;;;4837399;29;20053;-77
2022/06/21 01:38:27;;;;;;;1.20;1.10;;;;;;;;;;4835292;29;20149;-76
2022/06/21 01:41:01;;;;;;;1.17;0.93;;;;;;;;;;4818162;29;20384;-77
2022/06/21 01:43:29;;;;;;;1.88;0.93;;;;;;;;;;4829931;29;20602;-77
2022/06/21 01:46:08;;;;;;;0.90;0.90;;;;;;;;;;4846545;29;20109;-77
2022/06/21 01:48:38;;;;;;;1.00;1.00;;;;;;;;;;4850626;29;20124;-77
2022/06/21 01:51:07;;;;;;;1.88;1.27;;;;;;;;;;4846023;29;20141;-77
2022/06/21 01:53:35;;;;;;;1.35;1.00;;;;;;;;;;4819239;29;20068;-78
2022/06/21 01:56:05;;;;;;;3.25;1.10;;;;;;;;;;4855625;29;20120;-78
2022/06/21 01:58:35;;;;;;;1.02;1.00;;;;;;;;;;4848719;29;20393;-78
2022/06/21 02:01:08;;;;;;;1.90;1.17;;;;;;;;;;4832535;29;20440;-76
2022/06/21 02:03:37;;;;;;;2.80;1.10;;;;;;;;;;4836661;29;20046;-75
2022/06/21 02:06:10;;;;;;;1.40;1.30;;;;;;;;;;4844917;29;20096;-77
2022/06/21 02:08:42;;;;;;;3.22;1.20;;;;;;;;;;4806361;29;20122;-76
2022/06/21 02:11:13;;;;;;;1.30;1.20;;;;;;;;;;4843418;29;20127;-76
2022/06/21 02:13:43;;;;;;;1.33;1.30;;;;;;;;;;4852508;29;20072;-76
2022/06/21 02:16:11;;;;;;;1.38;1.10;;;;;;;;;;4848910;29;20088;-76
2022/06/21 02:18:41;;;;;;;2.50;1.50;;;;;;;;;;4847765;29;20060;-78
2022/06/21 02:21:25;;;;;;;1.20;1.20;;;;;;;;;;4832857;29;20050;-76
2022/06/21 02:23:53;;;;;;;1.27;1.20;;;;;;;;;;4827629;29;20144;-78
2022/06/21 02:26:22;;;;;;;1.38;1.25;;;;;;;;;;4842540;29;20074;-79
2022/06/21 02:28:50;;;;;;;3.60;1.50;;;;;;;;;;4840441;29;20076;-78
2022/06/21 02:31:17;;;;;;;1.30;1.20;;;;;;;;;;4829410;29;20145;-77
2022/06/21 02:33:46;;;;;;;1.58;1.48;;;;;;;;;;4837485;29;20061;-77
2022/06/21 02:36:17;;;;;;;1.52;1.40;;;;;;;;;;4839477;29;20052;-77
2022/06/21 02:38:56;;;;;;;1.25;1.23;;;;;;;;;;4845418;29;20085;-79
2022/06/21 02:41:26;;;;;;;2.50;1.40;;;;;;;;;;4819584;29;20052;-77
2022/06/21 02:43:56;;;;;;;1.60;1.50;;;;;;;;;;4812764;29;20061;-78
2022/06/21 02:46:26;;;;;;;1.75;1.25;;;;;;;;;;4838577;29;20061;-76
2022/06/21 02:48:58;;;;;;;2.53;1.27;;;;;;;;;;4845297;29;20045;-76
2022/06/21 02:51:28;;;;;;;2.50;1.15;;;;;;;;;;4843095;29;20376;-76
2022/06/21 02:54:07;;;;;;;2.42;1.30;;;;;;;;;;4829564;29;20076;-76
2022/06/21 02:56:39;;;;;;;2.60;1.42;;;;;;;;;;4849793;29;20053;-76
2022/06/21 02:59:06;;;;;;;1.30;1.20;;;;;;;;;;4821462;29;20144;-78
2022/06/21 03:01:36;;;;;;;2.20;1.40;;;;;;;;;;4836597;29;20410;-78
2022/06/21 03:04:04;;;;;;;1.45;1.20;;;;;;;;;;4852978;29;20526;-76
2022/06/21 03:06:33;;;;;;;1.23;0.98;;;;;;;;;;4821143;29;20062;-76
2022/06/21 03:09:08;;;;;;;1.05;1.00;;;;;;;;;;4852166;29;20077;-76
2022/06/21 03:11:38;;;;;;;1.77;1.20;;;;;;;;;;4829805;29;20056;-76
2022/06/21 03:14:07;;;;;;;2.03;1.33;;;;;;;;;;4852743;29;20053;-76
2022/06/21 03:16:34;;;;;;;2.05;1.33;;;;;;;;;;4834870;29;20270;-76
2022/06/21 03:19:04;;;;;;;4.40;1.50;;;;;;;;;;4824463;29;20089;-76
2022/06/21 03:21:33;;;;;;;1.75;1.30;;;;;;;;;;4828125;29;20050;-76
2022/06/21 03:24:03;;;;;;;2.25;1.30;;;;;;;;;;4861879;29;20573;-78
2022/06/21 03:26:31;;;;;;;1.23;1.00;;;;;;;;;;4846252;29;20150;-76
2022/06/21 03:28:59;;;;;;;1.48;1.38;;;;;;;;;;4870652;29;20170;-76
2022/06/21 03:31:35;;;;;;;3.40;1.40;;;;;;;;;;4854452;29;20049;-76
2022/06/21 03:34:05;;;;;;;2.72;1.20;;;;;;;;;;4871048;29;20053;-77
2022/06/21 03:36:33;;;;;;;2.15;1.38;;;;;;;;;;4829350;29;20102;-77
2022/06/21 03:39:03;;;;;;;1.85;1.60;;;;;;;;;;4854311;29;20037;-76
2022/06/21 03:41:43;;;;;;;2.55;1.40;;;;;;;;;;4840567;29;20448;-76
2022/06/21 03:44:19;;;;;;;2.70;1.42;;;;;;;;;;4862089;29;20454;-76
2022/06/21 03:47:04;;;;;;;1.45;1.35;;;;;;;;;;4869044;29;20415;-76
2022/06/21 03:49:35;;;;;;;2.47;1.27;;;;;;;;;;4853967;29;20557;-77
2022/06/21 03:52:09;;;;;;;3.30;1.15;;;;;;;;;;4847927;29;20150;-78
2022/06/21 03:54:47;;;;;;;1.73;1.20;;;;;;;;;;4861525;29;20511;-77
2022/06/21 03:57:34;;;;;;;2.40;1.30;;;;;;;;;;4851987;29;20320;-78
2022/06/21 04:00:03;;;;;;;1.00;1.00;;;;;;;;;;4837302;29;20052;-77
2022/06/21 04:02:34;;;;;;;2.63;1.25;;;;;;;;;;4849718;29;20090;-77
2022/06/21 04:05:01;;;;;;;2.25;1.20;;;;;;;;;;4833220;29;20041;-76
2022/06/21 04:07:29;;;;;;;1.33;1.13;;;;;;;;;;4837653;29;20054;-78
2022/06/21 04:10:07;;;;;;;1.23;1.10;;;;;;;;;;4842649;29;20552;-77
2022/06/21 04:12:42;;;;;;;3.55;1.15;;;;;;;;;;4847632;29;20476;-76
2022/06/21 04:15:16;;;;;;;3.20;1.60;;;;;;;;;;4847904;29;20098;-78
2022/06/21 04:17:58;;;;;;;2.67;1.15;;;;;;;;;;4842487;29;20124;-77
2022/06/21 04:20:40;;;;;;;1.75;1.13;;;;;;;;;;4841361;29;20042;-79
2022/06/21 04:23:20;;;;;;;1.60;1.30;;;;;;;;;;4848377;29;20041;-76
2022/06/21 04:25:57;;;;;;;1.13;1.00;;;;;;;;;;4855152;29;20046;-76
2022/06/21 04:28:30;;;;;;;1.10;1.10;;;;;;;;;;4845192;29;20522;-79
2022/06/21 04:31:02;;;;;;;1.40;1.30;;;;;;;;;;4848298;29;20096;-77
2022/06/21 04:33:32;;;;;;;2.03;1.05;;;;;;;;;;4850184;29;20053;-75
2022/06/21 04:36:08;;;;;;;1.40;1.30;;;;;;;;;;4846349;29;20472;-75
2022/06/21 04:38:40;;;;;;;2.17;1.00;;;;;;;;;;4844502;29;20054;-75
2022/06/21 04:41:11;;;;;;;2.40;1.10;;;;;;;;;;4838049;29;20034;-75
2022/06/21 04:43:39;;;;;;;1.85;0.95;;;;;;;;;;4845247;29;20144;-78
2022/06/21 04:46:12;;;;;;;1.20;1.20;;;;;;;;;;4855680;29;20044;-75
2022/06/21 04:48:39;;;;;;;3.00;1.40;;;;;;;;;;4821253;29;20054;-77
2022/06/21 04:51:16;;;;;;;1.70;1.20;;;;;;;;;;4820688;29;20061;-76
2022/06/21 04:53:49;;;;;;;1.33;1.13;;;;;;;;;;4848398;29;20053;-77
2022/06/21 04:56:17;;;;;;;1.20;1.10;;;;;;;;;;4844052;29;20311;-77
2022/06/21 04:58:45;;;;;;;1.30;1.20;;;;;;;;;;4836394;29;20563;-76
2022/06/21 05:01:32;;;;;;;1.25;1.10;;;;;;;;;;4845343;29;20033;-76
2022/06/21 05:04:17;;;;;;;2.67;0.90;;;;;;;;;;4848910;29;20049;-78
2022/06/21 05:06:45;;;;;;;2.03;1.13;;;;;;;;;;4846169;29;20567;-78
2022/06/21 05:09:17;;;;;;;1.30;0.98;;;;;;;;;;4849045;29;20525;-78
2022/06/21 05:11:45;;;;;;;3.55;1.10;;;;;;;;;;4853391;29;20050;-76
2022/06/21 05:14:18;;;;;;;1.67;1.20;;;;;;;;;;4839978;29;20280;-77
2022/06/21 05:16:45;;;;;;;3.53;0.98;;;;;;;;;;4843574;29;20050;-76
2022/06/21 05:19:15;;;;;;;1.30;0.73;;;;;;;;;;4830665;29;20474;-77
2022/06/21 05:21:53;;;;;;;0.80;0.80;;;;;;;;;;4848135;29;20046;-76
2022/06/21 05:24:20;;;;;;;1.13;0.80;;;;;;;;;;4845677;29;20152;-77
2022/06/21 05:27:10;;;;;;;1.60;1.13;;;;;;;;;;4842511;29;20049;-77
2022/06/21 05:29:49;;;;;;;3.40;1.10;;;;;;;;;;4836854;29;20044;-77
2022/06/21 05:32:28;;;;;;;2.25;1.60;;;;;;;;;;4864783;24;20077;-74
2022/06/21 05:34:59;;;;;;;2.72;1.10;;;;;;;;;;4850543;29;20543;-75
2022/06/21 05:37:36;;;;;;;1.98;0.95;;;;;;;;;;4840224;29;20098;-75
2022/06/21 05:40:13;;;;;;;1.23;0.98;;;;;;;;;;4853383;29;20065;-74
2022/06/21 05:42:41;;;;;;;1.70;1.10;;;;;;;;;;4845666;29;20038;-75
2022/06/21 05:45:14;;;;;;;2.17;1.10;;;;;;;;;;4844731;29;20052;-75
2022/06/21 05:47:43;;;;;;;3.05;1.20;;;;;;;;;;4841937;29;20049;-75
2022/06/21 05:50:27;;;;;;;4.00;1.23;;;;;;;;;;4847907;29;20049;-75
2022/06/21 05:52:56;;;;;;;6.13;1.10;;;;;;;;;;4832929;29;20061;-75
2022/06/21 05:55:23;;;;;;;3.15;1.20;;;;;;;;;;4856248;29;20102;-75
2022/06/21 05:57:57;;;;;;;1.48;1.33;;;;;;;;;;4851649;29;20046;-75
2022/06/21 06:00:39;;;;;;;1.77;0.90;;;;;;;;;;4851279;29;20065;-75
2022/06/21 06:03:19;;;;;;;0.93;0.90;;;;;;;;;;4840213;29;20818;-75
2022/06/21 06:05:49;;;;;;;1.00;0.93;;;;;;;;;;4847255;29;20230;-75
2022/06/21 06:08:22;;;;;;;3.08;1.25;;;;;;;;;;4831838;29;20591;-75
2022/06/21 06:10:50;;;;;;;1.15;0.90;;;;;;;;;;4838261;29;20049;-75
2022/06/21 06:13:38;;;;;;;2.50;1.10;;;;;;;;;;4842042;29;20500;-74
2022/06/21 06:16:11;;;;;;;1.33;0.77;;;;;;;;;;4845304;29;20053;-74
2022/06/21 06:18:53;;;;;;;1.30;1.00;;;;;;;;;;4849273;29;20119;-75
2022/06/21 06:21:23;;;;;;;2.05;1.02;;;;;;;;;;4851869;29;20072;-75
2022/06/21 06:23:55;;;;;;;1.70;1.00;;;;;;;;;;4837355;29;20046;-74
2022/06/21 06:26:28;;;;;;;2.55;0.95;;;;;;;;;;4842855;29;20089;-75
2022/06/21 06:28:56;;;;;;;2.53;1.10;;;;;;;;;;4856329;29;20046;-74
2022/06/21 06:31:40;;;;;;;2.17;1.20;;;;;;;;;;4837170;29;20149;-74
2022/06/21 06:34:10;;;;;;;2.13;1.10;;;;;;;;;;4842820;29;20991;-73
2022/06/21 06:36:37;;;;;;;1.83;1.20;;;;;;;;;;4823062;29;20519;-75
2022/06/21 06:39:13;;;;;;;1.95;1.60;;;;;;;;;;4844597;29;20052;-75
2022/06/21 06:41:46;;;;;;;1.73;1.13;;;;;;;;;;4836567;29;20045;-73
2022/06/21 06:44:13;;;;;;;2.20;1.30;;;;;;;;;;4853759;29;20101;-76
2022/06/21 06:46:43;;;;;;;1.40;1.30;;;;;;;;;;4836519;29;20118;-76
2022/06/21 06:49:27;;;;;;;2.58;1.05;;;;;;;;;;4825978;29;20054;-74
2022/06/21 06:52:03;;;;;;;1.70;0.90;;;;;;;;;;4827384;29;20547;-74
2022/06/21 06:54:34;;;;;;;3.45;1.02;;;;;;;;;;4840992;29;20455;-74
2022/06/21 06:57:09;;;;;;;3.53;1.33;;;;;;;;;;4828174;29;20064;-75
2022/06/21 06:59:36;;;;;;;3.05;0.80;;;;;;;;;;4842183;29;20042;-75
2022/06/21 07:02:15;;;;;;;1.58;1.00;;;;;;;;;;4838102;29;20044;-75
2022/06/21 07:04:45;;;;;;;2.35;1.08;;;;;;;;;;4846837;29;20049;-75
2022/06/21 07:07:17;;;;;;;1.15;1.02;;;;;;;;;;4854909;29;20180;-74
2022/06/21 07:09:49;;;;;;;0.90;0.90;;;;;;;;;;4840298;29;20073;-75
2022/06/21 07:12:17;;;;;;;;;;;;;;;;;;4837206;29;20043;-75
2022/06/21 07:14:45;;;;;;;2.20;1.00;;;;;;;;;;4824895;29;20031;-75
2022/06/21 07:17:45;;;;;;;2.92;1.05;;;;;;;;;;4822866;29;20322;-76
2022/06/21 07:20:23;;;;;;;1.58;1.10;;;;;;;;;;4819611;29;20065;-74
2022/06/21 07:22:52;;;;;;;1.63;0.85;;;;;;;;;;4847735;29;20501;-76
2022/06/21 07:25:32;;;;;;;2.40;0.85;;;;;;;;;;4851907;29;20156;-74
2022/06/21 07:28:23;;;;;;;2.25;1.20;;;;;;;;;;4870841;29;20073;-76
2022/06/21 07:30:55;;;;;;;2.08;0.77;;;;;;;;;;4829699;29;20148;-75
2022/06/21 07:33:27;;;;;;;0.98;0.85;;;;;;;;;;4851853;29;20046;-76
2022/06/21 07:35:58;;;;;;;0.75;0.75;;;;;;;;;;4836996;29;20460;-76
2022/06/21 07:38:28;;;;;;;4.70;1.30;;;;;;;;;;4844037;29;20418;-74
2022/06/21 07:41:06;;;;;;;0.95;0.70;;;;;;;;;;4854346;29;20137;-74
2022/06/21 07:43:35;;;;;;;1.92;1.08;;;;;;;;;;4833866;29;20124;-73
2022/06/21 07:46:04;;;;;;;1.27;0.88;;;;;;;;;;4849786;29;20136;-74
2022/06/21 07:48:37;;;;;;;4.28;1.00;;;;;;;;;;4837837;29;20180;-76
2022/06/21 07:51:07;;;;;;;1.92;0.90;;;;;;;;;;4846072;29;20049;-76
2022/06/21 07:53:44;;;;;;;1.13;0.88;;;;;;;;;;4837827;29;20054;-73
2022/06/21 07:56:22;;;;;;;2.42;0.80;;;;;;;;;;4854324;29;20053;-75
2022/06/21 07:58:50;;;;;;;2.90;0.80;;;;;;;;;;4854147;29;20068;-76
2022/06/21 08:07:23;;;;;;;1.75;0.75;;;;;;;;;;4853483;29;20045;-74
2022/06/21 08:09:58;;;;;;;3.40;0.90;;;;;;;;;;4838626;29;20091;-75
2022/06/21 08:12:25;;;;;;;2.65;1.20;;;;;;;;;;4844808;29;20506;-76
2022/06/21 08:14:54;;;;;;;1.60;0.80;;;;;;;;;;4835051;29;20045;-74
2022/06/21 08:17:29;;;;;;;1.45;0.80;;;;;;;;;;4839985;29;20061;-73
2022/06/21 08:20:01;;;;;;;3.30;1.00;;;;;;;;;;4838420;29;20149;-76
2022/06/21 08:22:38;;;;;;;1.65;0.77;;;;;;;;;;4844878;29;20471;-75
2022/06/21 08:25:18;;;;;;;1.15;0.88;;;;;;;;;;4844850;29;20381;-76
2022/06/21 08:28:04;;;;;;;2.42;0.82;;;;;;;;;;4856671;29;20052;-76
2022/06/21 08:30:43;;;;;;;1.08;0.90;;;;;;;;;;4840658;29;20053;-77
2022/06/21 08:33:14;;;;;;;2.85;0.90;;;;;;;;;;4840841;29;20309;-76
2022/06/21 08:35:42;;;;;;;;;;;;;;;;;;4857844;29;20533;-76
2022/06/21 08:38:14;;;;;;;0.82;0.70;;;;;;;;;;4869002;29;19959;-74
2022/06/21 08:40:59;;;;;;;1.80;0.90;;;;;;;;;;4852779;29;20057;-75
2022/06/21 08:43:33;;;;;;;0.88;0.82;;;;;;;;;;4847398;29;20125;-74
2022/06/21 08:46:19;;;;;;;1.10;0.80;;;;;;;;;;4857190;29;20076;-76
2022/06/21 08:49:02;;;;;;;3.13;1.00;;;;;;;;;;4844786;29;20459;-76
2022/06/21 08:51:48;;;;;;;4.70;1.00;;;;;;;;;;4844531;29;20645;-76
2022/06/21 08:54:22;;;;;;;1.15;0.90;;;;;;;;;;4844773;29;20051;-74
2022/06/21 08:56:55;;;;;;;1.58;1.02;;;;;;;;;;4836740;29;20088;-75
2022/06/21 08:59:22;;;;;;;2.05;1.27;;;;;;;;;;4840926;29;20053;-74
2022/06/21 09:02:08;;;;;;;2.15;0.93;;;;;;;;;;4857594;29;20065;-76
2022/06/21 09:04:55;;;;;;;2.47;0.98;;;;;;;;;;4856675;29;20049;-74
2022/06/21 09:07:23;;;;;;;1.88;0.95;;;;;;;;;;4837755;29;20130;-75
2022/06/21 09:10:09;;;;;;;3.22;0.80;;;;;;;;;;4821461;29;20141;-76
2022/06/21 09:12:36;;;;;;;1.67;0.70;;;;;;;;;;4846564;29;20122;-76
2022/06/21 09:15:15;;;;;;;1.13;0.80;;;;;;;;;;4855185;29;20045;-75
2022/06/21 09:17:49;;;;;;;1.67;0.90;;;;;;;;;;4813950;29;20061;-74
2022/06/21 09:20:17;;;;;;;3.90;0.88;;;;;;;;;;4829965;29;20145;-75
2022/06/21 09:23:21;;;;;;;1.00;0.90;;;;;;;;;;4824416;29;20190;-75
2022/06/21 09:25:51;;;;;;;1.30;1.00;;;;;;;;;;4848235;29;20070;-75
2022/06/21 09:28:40;;;;;;;6.68;1.00;;;;;;;;;;4850505;29;20049;-76
2022/06/21 09:31:17;;;;;;;1.30;0.90;;;;;;;;;;4847989;29;20120;-75
2022/06/21 09:33:50;;;;;;;2.97;0.95;;;;;;;;;;4834133;29;20053;-77
2022/06/21 09:36:29;;;;;;;1.42;0.80;;;;;;;;;;4844622;29;20147;-75
2022/06/21 09:38:57;;;;;;;1.17;0.77;;;;;;;;;;4840325;29;20069;-75
2022/06/21 09:41:31;;;;;;;2.03;0.75;;;;;;;;;;4852525;29;20054;-75
2022/06/21 09:44:21;;;;;;;2.25;1.00;;;;;;;;;;4847623;29;20038;-76
2022/06/21 09:46:58;;;;;;;2.17;0.90;;;;;;;;;;4843809;29;20456;-74
2022/06/21 09:49:50;;;;;;;1.92;0.80;;;;;;;;;;4855889;29;20049;-74
2022/06/21 09:52:20;;;;;;;1.33;0.80;;;;;;;;;;4848570;29;20124;-74
2022/06/21 09:54:57;;;;;;;4.13;0.70;;;;;;;;;;4836940;29;20054;-75
2022/06/21 09:57:24;;;;;;;2.05;0.77;;;;;;;;;;4835566;29;20053;-74
2022/06/21 10:00:10;;;;;;;3.03;0.93;;;;;;;;;;4832679;29;20045;-76
2022/06/21 10:02:49;;;;;;;2.90;1.00;;;;;;;;;;4855679;29;20046;-76
2022/06/21 10:05:26;;;;;;;1.52;0.85;;;;;;;;;;4855751;29;20057;-75
2022/06/21 10:08:12;;;;;;;2.53;1.00;;;;;;;;;;4849150;29;20146;-74
2022/06/21 10:10:51;;;;;;;3.15;1.23;;;;;;;;;;4853058;29;20491;-75
2022/06/21 10:13:47;;;;;;;2.47;0.77;;;;;;;;;;4837702;29;20042;-75
2022/06/21 10:16:33;;;;;;;3.80;1.10;;;;;;;;;;4842228;29;20126;-75
2022/06/21 10:19:00;;;;;;;0.85;0.77;;;;;;;;;;4834368;29;20050;-74
2022/06/21 10:21:35;;;;;;;0.98;0.90;;;;;;;;;;4843422;29;20133;-75
2022/06/21 10:24:06;;;;;;;1.92;0.80;;;;;;;;;;4838949;29;20102;-77
2022/06/21 10:26:42;;;;;;;2.80;0.80;;;;;;;;;;4837922;29;20578;-77
2022/06/21 10:29:21;;;;;;;1.70;0.90;;;;;;;;;;4827212;29;20442;-76
2022/06/21 10:31:56;;;;;;;1.50;0.57;;;;;;;;;;4851943;29;20045;-75
2022/06/21 10:34:26;;;;;;;1.45;0.82;;;;;;;;;;4845487;29;20132;-76
2022/06/21 10:37:07;;;;;;;1.00;0.80;;;;;;;;;;4841172;29;20049;-76
2022/06/21 10:39:45;;;;;;;0.63;0.63;;;;;;;;;;4846694;29;20416;-77
2022/06/21 10:42:46;;;;;;;1.45;0.77;;;;;;;;;;4835576;29;20185;-75
2022/06/21 10:45:20;;;;;;;1.23;0.60;;;;;;;;;;4839388;29;20462;-77
2022/06/21 10:47:52;;;;;;;1.02;0.70;;;;;;;;;;4844130;29;20534;-75
2022/06/21 10:50:30;;;;;;;3.00;0.70;;;;;;;;;;4825123;29;20137;-74
2022/06/21 10:53:21;;;;;;;0.60;0.60;;;;;;;;;;4831953;29;20098;-74
2022/06/21 10:55:49;;;;;;;2.30;0.80;;;;;;;;;;4839115;29;20060;-76
2022/06/21 10:58:17;;;;;;;1.45;0.70;;;;;;;;;;4843018;29;20077;-76
2022/06/21 11:03:53;;;;;;;0.90;0.63;;;;;;;;;;4847994;29;20049;-73
2022/06/21 11:06:40;;;;;;;0.60;0.60;;;;;;;;;;4828935;29;20180;-77
2022/06/21 11:09:17;;;;;;;1.50;0.70;;;;;;;;;;4834113;29;20543;-76
2022/06/21 11:11:52;;;;;;;4.88;0.70;;;;;;;;;;4835007;29;20054;-76
2022/06/21 11:14:19;;;;;;;1.70;0.70;;;;;;;;;;4830490;29;20046;-76
2022/06/21 11:17:05;;;;;;;0.85;0.60;;;;;;;;;;4827072;29;20133;-76
2022/06/21 11:19:39;;;;;;;0.95;0.73;;;;;;;;;;4832914;29;20106;-76
2022/06/21 11:22:12;;;;;;;1.60;0.70;;;;;;;;;;4834623;29;20456;-75
2022/06/21 11:24:58;;;;;;;3.15;1.90;;;;;;;;;;4857877;29;20136;-75
2022/06/21 11:27:40;;;;;;;0.73;0.60;;;;;;;;;;4839141;29;20085;-76
2022/06/21 11:30:09;;;;;;;;;;;;;;;;;;4841986;29;20109;-74
2022/06/21 11:33:04;;;;;;;2.30;0.73;;;;;;;;;;4855487;29;20048;-76
2022/06/21 11:35:37;;;;;;;1.83;0.60;;;;;;;;;;4849760;29;20473;-76
2022/06/21 11:38:07;;;;;;;1.77;0.60;;;;;;;;;;4850015;29;20097;-75
2022/06/21 11:40:35;;;;;;;0.57;0.57;;;;;;;;;;4847272;29;20506;-75
2022/06/21 11:43:04;;;;;;;1.15;0.75;;;;;;;;;;4826120;29;20057;-74
2022/06/21 11:45:38;;;;;;;1.38;0.60;;;;;;;;;;4839624;29;20140;-76
2022/06/21 11:48:06;;;;;;;2.67;0.88;;;;;;;;;;4820961;29;20045;-77
2022/06/21 11:50:52;;;;;;;1.30;0.70;;;;;;;;;;4837545;29;20049;-75
2022/06/21 11:53:20;;;;;;;1.05;0.80;;;;;;;;;;4857926;29;20045;-75
2022/06/21 11:55:55;;;;;;;1.70;0.60;;;;;;;;;;4841685;29;21099;-75
2022/06/21 11:58:34;;;;;;;2.78;0.98;;;;;;;;;;4838144;29;20109;-77
2022/06/21 12:01:03;;;;;;;1.63;0.50;;;;;;;;;;4836484;29;20069;-77
2022/06/21 12:03:46;;;;;;;3.97;1.23;;;;;;;;;;4833446;29;20116;-75
2022/06/21 12:06:18;;;;;;;0.60;0.57;;;;;;;;;;4840439;29;20045;-76
2022/06/21 12:09:10;;;;;;;1.45;0.75;;;;;;;;;;4845665;29;20037;-77
2022/06/21 12:11:54;;;;;;;0.50;0.50;;;;;;;;;;4844446;29;20053;-77
2022/06/21 12:14:28;;;;;;;1.00;0.63;;;;;;;;;;4837724;29;20053;-74
2022/06/21 12:17:14;;;;;;;1.35;0.50;;;;;;;;;;4842865;29;20073;-75
2022/06/21 12:19:43;;;;;;;1.25;0.60;;;;;;;;;;4828891;29;20046;-75
2022/06/21 12:22:13;;;;;;;4.55;0.60;;;;;;;;;;4839137;29;20534;-76
2022/06/21 12:24:41;;;;;;;2.08;0.63;;;;;;;;;;4832950;29;20373;-75
2022/06/21 12:27:11;;;;;;;1.83;0.52;;;;;;;;;;4819849;29;20047;-76
2022/06/21 12:29:38;;;;;;;5.55;0.63;;;;;;;;;;4847214;29;20136;-76
2022/06/21 12:32:08;;;;;;;3.60;0.80;;;;;;;;;;4834245;29;20054;-76
2022/06/21 12:34:43;;;;;;;3.03;0.73;;;;;;;;;;4847872;29;20050;-76
2022/06/21 12:37:14;;;;;;;0.82;0.60;;;;;;;;;;4865447;29;20502;-76
2022/06/21 12:39:54;;;;;;;0.57;0.57;;;;;;;;;;4870181;29;20116;-75
2022/06/21 12:42:31;;;;;;;2.67;0.70;;;;;;;;;;4850164;29;20452;-76
2022/06/21 12:45:01;;;;;;;1.13;0.60;;;;;;;;;;4838188;29;20057;-75
2022/06/21 12:47:41;;;;;;;0.88;0.60;;;;;;;;;;4849908;29;20448;-76
2022/06/21 12:50:27;;;;;;;0.63;0.60;;;;;;;;;;4839050;29;20034;-77
2022/06/21 12:53:04;;;;;;;1.45;0.60;;;;;;;;;;4851033;29;20077;-74
2022/06/21 12:55:37;;;;;;;2.55;0.70;;;;;;;;;;4845322;29;20495;-76
2022/06/21 12:58:16;;;;;;;1.67;0.68;;;;;;;;;;4848542;29;20102;-77
2022/06/21 13:00:47;;;;;;;0.85;0.60;;;;;;;;;;4853616;29;20042;-75
2022/06/21 13:03:24;;;;;;;2.83;1.73;;;;;;;;;;4858582;29;20442;-75
2022/06/21 13:06:05;;;;;;;3.05;2.80;;;;;;;;;;4852751;29;20041;-75
2022/06/21 13:08:32;;;;;;;;;;;;;;;;;;4836585;29;20098;-77
2022/06/21 13:11:05;;;;;;;2.70;0.60;;;;;;;;;;4844899;29;19967;-76
2022/06/21 13:13:52;;;;;;;0.50;0.50;;;;;;;;;;4864853;29;20049;-75
2022/06/21 13:16:27;;;;;;;2.15;0.90;;;;;;;;;;4821772;29;20065;-75
2022/06/21 13:19:04;;;;;;;1.02;0.50;;;;;;;;;;4837382;29;20089;-76
2022/06/21 13:21:50;;;;;;;2.42;0.68;;;;;;;;;;4853206;29;20054;-75
2022/06/21 13:24:21;;;;;;;1.92;0.80;;;;;;;;;;4842879;29;20045;-77
2022/06/21 13:26:54;;;;;;;2.97;0.82;;;;;;;;;;4820650;29;20135;-77
2022/06/21 13:29:37;;;;;;;0.82;0.70;;;;;;;;;;4860200;29;20055;-75
2022/06/21 13:32:07;;;;;;;3.05;0.90;;;;;;;;;;4874073;29;20100;-77
2022/06/21 13:34:34;;;;;;;1.80;0.80;;;;;;;;;;4871581;29;20391;-77
2022/06/21 13:37:22;;;;;;;1.65;0.80;;;;;;;;;;4837815;29;20480;-75
2022/06/21 13:40:03;;;;;;;1.33;0.60;;;;;;;;;;4838026;29;20553;-77
2022/06/21 13:42:40;;;;;;;2.58;0.63;;;;;;;;;;4863977;29;20141;-76
2022/06/21 13:45:13;;;;;;;2.95;0.80;;;;;;;;;;4852564;29;20196;-76
2022/06/21 13:47:56;;;;;;;1.35;0.85;;;;;;;;;;4824033;29;20045;-77
2022/06/21 13:50:42;;;;;;;2.22;0.70;;;;;;;;;;4839612;29;20045;-77
2022/06/21 13:53:14;;;;;;;2.03;0.60;;;;;;;;;;4827162;29;20136;-76
2022/06/21 13:55:53;;;;;;;0.75;0.60;;;;;;;;;;4841459;29;20369;-75
2022/06/21 13:58:32;;;;;;;1.98;0.60;;;;;;;;;;4822471;29;20053;-76
2022/06/21 14:01:16;;;;;;;0.50;0.50;;;;;;;;;;4839706;29;20054;-76
2022/06/21 14:03:48;;;;;;;0.70;0.70;;;;;;;;;;4845474;29;20080;-76
2022/06/21 14:06:19;;;;;;;3.40;0.60;;;;;;;;;;4837899;29;20633;-76
2022/06/21 14:08:52;;;;;;;1.58;0.60;;;;;;;;;;4823447;29;20050;-76
2022/06/21 14:11:40;;;;;;;2.60;0.63;;;;;;;;;;4828317;29;20050;-75
2022/06/21 14:14:17;;;;;;;0.75;0.70;;;;;;;;;;4820019;29;20060;-76
2022/06/21 14:16:50;;;;;;;0.85;0.60;;;;;;;;;;4836101;29;20138;-76
2022/06/21 14:19:18;;;;;;;1.02;0.60;;;;;;;;;;4825316;29;20533;-75
2022/06/21 14:21:58;;;;;;;0.88;0.68;;;;;;;;;;4828964;29;20411;-76
2022/06/21 14:24:43;;;;;;;2.58;0.70;;;;;;;;;;4827813;29;20129;-75
2022/06/21 14:27:10;;;;;;;1.08;0.90;;;;;;;;;;4827902;29;20607;-75
2022/06/21 14:29:38;;;;;;;2.20;0.70;;;;;;;;;;4822833;29;20188;-76
2022/06/21 14:32:10;;;;;;;0.63;0.57;;;;;;;;;;4823198;29;20042;-77
2022/06/21 14:34:42;;;;;;;1.40;0.73;;;;;;;;;;4827485;29;20550;-77
2022/06/21 14:37:28;;;;;;;2.53;0.60;;;;;;;;;;4818733;29;20041;-76
2022/06/21 14:40:18;;;;;;;1.60;0.93;;;;;;;;;;4818685;29;20045;-75
2022/06/21 14:42:46;;;;;;;;;;;;;;;;;;4828203;29;20114;-75
2022/06/21 14:45:16;;;;;;;0.70;0.70;;;;;;;;;;4815843;29;20030;-76
2022/06/21 14:47:57;;;;;;;2.13;0.80;;;;;;;;;;4818047;29;20054;-76
2022/06/21 14:50:28;;;;;;;0.75;0.65;;;;;;;;;;4821054;29;20050;-77
2022/06/21 14:53:00;;;;;;;1.63;1.40;;;;;;;;;;4825423;29;20102;-77
2022/06/21 14:55:30;;;;;;;1.33;0.70;;;;;;;;;;4828434;29;20087;-76
2022/06/21 14:58:19;;;;;;;3.83;0.60;;;;;;;;;;4828579;29;20037;-77
2022/06/21 15:01:05;;;;;;;0.60;0.60;;;;;;;;;;4841891;29;20085;-76
2022/06/21 15:03:36;;;;;;;1.95;0.50;;;;;;;;;;4840862;29;20157;-75
2022/06/21 15:06:09;;;;;;;0.75;0.70;;;;;;;;;;4838748;29;20491;-76
2022/06/21 15:08:39;;;;;;;1.38;0.70;;;;;;;;;;4823450;29;20046;-76
2022/06/21 15:11:07;;;;;;;;;;;;;;;;;;4830095;29;20042;-75
2022/06/21 15:13:40;;;;;;;4.43;0.70;;;;;;;;;;4839416;29;19932;-75
2022/06/21 15:16:09;;;;;;;0.63;0.63;;;;;;;;;;4837446;29;20050;-76
2022/06/21 15:18:38;;;;;;;1.92;0.70;;;;;;;;;;4838403;29;20068;-75
2022/06/21 15:21:08;;;;;;;0.68;0.60;;;;;;;;;;4808733;29;20069;-75
2022/06/21 15:23:45;;;;;;;1.25;0.80;;;;;;;;;;4835743;29;20110;-74
2022/06/21 15:26:19;;;;;;;1.02;0.63;;;;;;;;;;4838006;29;20042;-74
2022/06/21 15:28:49;;;;;;;0.55;0.52;;;;;;;;;;4840722;29;20502;-76
2022/06/21 15:31:32;;;;;;;0.60;0.60;;;;;;;;;;4835565;29;20075;-76
2022/06/21 15:34:03;;;;;;;0.52;0.50;;;;;;;;;;4825310;29;20463;-74
2022/06/21 15:36:49;;;;;;;1.42;0.70;;;;;;;;;;4836714;29;20053;-75